createdAt,value
2023-04-01T00:00:24.556Z,77.7058
2023-04-01T00:01:25.364Z,77.7567
2023-04-01T00:02:26.481Z,77.6442
2023-04-01T00:03:28.282Z,77.5720
2023-04-01T00:04:29.596Z,77.8185
2023-04-01T00:05:30.630Z,77.8234
2023-04-01T00:06:31.670Z,77.7215
2023-04-01T00:07:32.447Z,77.6742
2023-04-01T00:08:33.247Z,77.4720
2023-04-01T00:09:34.093Z,77.6347
2023-04-01T00:10:34.900Z,77.7280
2023-04-01T00:11:35.876Z,77.6894
2023-04-01T00:12:36.764Z,77.8451
2023-04-01T00:13:37.573Z,77.7385
2023-04-01T00:14:38.386Z,77.6257
2023-04-01T00:15:39.213Z,77.7719
2023-04-01T00:16:40.208Z,77.6186
2023-04-01T00:17:41.054Z,77.8040
2023-04-01T00:18:41.862Z,78.0270
2023-04-01T00:19:43.824Z,77.7045
2023-04-01T00:20:44.571Z,77.5595
2023-04-01T00:21:45.409Z,77.7659
2023-04-01T00:22:46.184Z,77.3305
2023-04-01T00:23:47.050Z,77.3069
2023-04-01T00:24:47.828Z,77.3908
2023-04-01T00:25:48.645Z,77.5343
2023-04-01T00:26:49.486Z,77.7238
2023-04-01T00:27:50.355Z,77.8588
2023-04-01T00:28:51.140Z,77.6602
2023-04-01T00:29:52.040Z,77.9246
2023-04-01T00:30:52.833Z,77.6471
2023-04-01T00:31:53.674Z,77.5410
2023-04-01T00:32:54.659Z,77.5624
2023-04-01T00:33:55.552Z,77.8634
2023-04-01T00:34:56.413Z,78.0667
2023-04-01T00:35:57.345Z,78.0120
2023-04-01T00:36:58.165Z,78.0139
2023-04-01T00:37:59.022Z,78.1159
2023-04-01T00:38:59.903Z,77.9642
2023-04-01T00:40:00.723Z,77.4702
2023-04-01T00:41:01.538Z,77.6972
2023-04-01T00:42:02.486Z,77.2905
2023-04-01T00:43:03.337Z,77.2257
2023-04-01T00:44:04.146Z,77.3957
2023-04-01T00:45:04.928Z,76.9475
2023-04-01T00:46:05.740Z,76.6889
2023-04-01T00:47:06.687Z,76.6315
2023-04-01T00:48:07.785Z,77.0108
2023-04-01T00:49:08.638Z,76.5894
2023-04-01T00:50:09.578Z,76.6044
2023-04-01T00:51:10.484Z,76.5041
2023-04-01T00:52:11.346Z,76.7665
2023-04-01T00:53:12.180Z,76.9756
2023-04-01T00:54:13.106Z,76.7343
2023-04-01T00:55:13.903Z,76.6393
2023-04-01T00:56:14.720Z,76.9324
2023-04-01T00:57:15.818Z,76.8690
2023-04-01T00:58:16.587Z,76.9607
2023-04-01T00:59:17.428Z,76.9913
2023-04-01T01:00:18.251Z,77.2104
2023-04-01T01:01:19.183Z,77.0720
2023-04-01T01:02:20.117Z,77.2110
2023-04-01T01:03:21.012Z,77.1700
2023-04-01T01:04:21.852Z,77.4054
2023-04-01T01:05:24.046Z,77.7700
2023-04-01T01:06:23.809Z,77.6518
2023-04-01T01:07:24.725Z,77.0797
2023-04-01T01:08:25.550Z,77.3024
2023-04-01T01:09:26.359Z,77.5082
2023-04-01T01:10:27.191Z,77.5132
2023-04-01T01:11:33.572Z,77.6385
2023-04-01T01:12:28.356Z,77.5943
2023-04-01T01:13:29.162Z,78.0619
2023-04-01T01:14:29.996Z,77.9651
2023-04-01T01:15:31.409Z,78.2128
2023-04-01T01:16:32.374Z,78.3681
2023-04-01T01:17:33.255Z,78.5779
2023-04-01T01:18:34.167Z,78.5403
2023-04-01T01:19:35.088Z,78.4105
2023-04-01T01:20:35.915Z,78.5371
2023-04-01T01:21:36.780Z,78.5927
2023-04-01T01:22:37.698Z,78.4703
2023-04-01T01:23:38.527Z,78.8505
2023-04-01T01:24:39.446Z,79.3887
2023-04-01T01:25:40.302Z,79.2896
2023-04-01T01:26:41.130Z,79.2168
2023-04-01T01:27:41.984Z,79.5113
2023-04-01T01:28:42.838Z,79.5058
2023-04-01T01:29:43.691Z,79.4642
2023-04-01T01:30:44.604Z,79.5370
2023-04-01T01:31:45.380Z,79.5015
2023-04-01T01:32:46.271Z,79.4633
2023-04-01T01:33:47.101Z,79.4374
2023-04-01T01:34:48.042Z,79.5260
2023-04-01T01:35:48.857Z,79.3493
2023-04-01T01:36:49.688Z,78.8720
2023-04-01T01:37:50.589Z,78.7164
2023-04-01T01:38:51.388Z,78.8180
2023-04-01T01:39:52.281Z,78.2118
2023-04-01T01:40:53.106Z,78.5700
2023-04-01T01:41:53.946Z,79.0772
2023-04-01T01:42:54.827Z,79.0431
2023-04-01T01:43:55.737Z,78.7774
2023-04-01T01:44:56.586Z,78.7877
2023-04-01T01:45:57.436Z,78.9711
2023-04-01T01:46:58.227Z,79.1601
2023-04-01T01:47:59.302Z,79.2860
2023-04-01T01:49:00.051Z,78.6157
2023-04-01T01:50:00.852Z,78.5343
2023-04-01T01:51:01.649Z,78.6749
2023-04-01T01:52:02.518Z,78.6015
2023-04-01T01:53:03.427Z,78.4551
2023-04-01T01:54:04.200Z,77.8065
2023-04-01T01:55:04.994Z,77.8489
2023-04-01T01:56:05.831Z,78.0202
2023-04-01T01:57:06.737Z,78.1828
2023-04-01T01:58:07.543Z,78.4779
2023-04-01T01:59:08.394Z,77.7498
2023-04-01T02:00:09.179Z,77.8830
2023-04-01T02:01:10.074Z,77.4999
2023-04-01T02:02:10.845Z,77.6310
2023-04-01T02:03:11.686Z,77.7448
2023-04-01T02:04:12.697Z,77.6533
2023-04-01T02:05:13.487Z,77.7241
2023-04-01T02:06:14.298Z,77.3921
2023-04-01T02:07:15.119Z,77.6892
2023-04-01T02:08:16.009Z,77.3792
2023-04-01T02:09:16.840Z,77.3839
2023-04-01T02:10:17.726Z,77.2946
2023-04-01T02:11:18.516Z,77.0963
2023-04-01T02:12:19.324Z,77.0295
2023-04-01T02:13:20.197Z,76.9368
2023-04-01T02:14:21.029Z,76.5655
2023-04-01T02:15:21.824Z,76.5531
2023-04-01T02:16:22.728Z,76.6674
2023-04-01T02:17:23.562Z,76.7594
2023-04-01T02:18:24.453Z,76.4397
2023-04-01T02:19:25.267Z,76.5253
2023-04-01T02:20:26.097Z,76.3175
2023-04-01T02:21:26.957Z,76.4382
2023-04-01T02:22:27.790Z,76.1595
2023-04-01T02:23:28.859Z,76.4109
2023-04-01T02:24:29.708Z,76.3429
2023-04-01T02:25:30.898Z,76.4477
2023-04-01T02:26:31.892Z,76.3855
2023-04-01T02:27:32.682Z,76.3216
2023-04-01T02:28:33.537Z,76.2220
2023-04-01T02:29:34.369Z,76.4849
2023-04-01T02:30:35.190Z,76.6744
2023-04-01T02:31:36.130Z,76.1748
2023-04-01T02:32:37.013Z,75.8381
2023-04-01T02:33:37.802Z,76.0155
2023-04-01T02:34:38.634Z,75.0130
2023-04-01T02:35:39.507Z,74.7567
2023-04-01T02:36:40.498Z,75.0759
2023-04-01T02:37:41.303Z,75.2122
2023-04-01T02:38:42.163Z,75.1965
2023-04-01T02:39:42.982Z,75.4975
2023-04-01T02:40:43.856Z,75.7956
2023-04-01T02:41:44.663Z,75.5122
2023-04-01T02:42:45.527Z,75.4051
2023-04-01T02:43:46.467Z,75.3024
2023-04-01T02:44:47.332Z,75.7501
2023-04-01T02:45:48.151Z,76.0300
2023-04-01T02:46:48.987Z,76.3517
2023-04-01T02:47:49.891Z,76.5159
2023-04-01T02:48:50.715Z,76.9138
2023-04-01T02:49:51.627Z,77.6559
2023-04-01T02:50:52.445Z,78.1893
2023-04-01T02:51:53.297Z,78.4466
2023-04-01T02:52:54.202Z,78.8802
2023-04-01T02:53:55.027Z,78.8165
2023-04-01T02:54:55.838Z,78.3905
2023-04-01T02:55:56.679Z,77.9361
2023-04-01T02:56:57.791Z,77.3281
2023-04-01T02:57:58.718Z,77.3478
2023-04-01T02:58:59.550Z,77.7299
2023-04-01T03:00:00.427Z,77.9771
2023-04-01T03:01:01.380Z,78.0146
2023-04-01T03:02:02.374Z,78.0475
2023-04-01T03:03:03.981Z,77.7764
2023-04-01T03:04:05.012Z,77.4080
2023-04-01T03:05:05.846Z,77.3291
2023-04-01T03:06:06.767Z,76.8908
2023-04-01T03:07:07.649Z,77.2174
2023-04-01T03:08:08.578Z,76.9711
2023-04-01T03:09:09.430Z,76.5595
2023-04-01T03:10:10.238Z,76.1449
2023-04-01T03:11:11.060Z,75.9140
2023-04-01T03:12:11.964Z,75.7450
2023-04-01T03:13:12.818Z,75.5383
2023-04-01T03:14:13.656Z,75.8071
2023-04-01T03:15:14.565Z,76.0745
2023-04-01T03:16:15.525Z,76.2861
2023-04-01T03:17:16.416Z,76.0341
2023-04-01T03:18:17.334Z,76.2917
2023-04-01T03:19:18.169Z,76.6328
2023-04-01T03:20:19.046Z,76.7625
2023-04-01T03:21:19.852Z,76.6466
2023-04-01T03:22:20.731Z,76.2999
2023-04-01T03:23:21.638Z,76.2298
2023-04-01T03:24:22.445Z,76.4043
2023-04-01T03:25:23.349Z,76.4275
2023-04-01T03:26:24.222Z,76.6041
2023-04-01T03:27:25.023Z,76.6318
2023-04-01T03:28:25.871Z,75.9767
2023-04-01T03:29:26.722Z,76.1538
2023-04-01T03:30:27.627Z,76.2749
2023-04-01T03:31:28.959Z,76.4385
2023-04-01T03:32:29.985Z,76.4957
2023-04-01T03:33:30.803Z,76.0646
2023-04-01T03:34:31.635Z,76.2987
2023-04-01T03:35:33.388Z,76.5721
2023-04-01T03:36:34.442Z,76.6653
2023-04-01T03:37:35.305Z,76.8993
2023-04-01T03:38:36.150Z,77.1092
2023-04-01T03:39:37.031Z,76.8351
2023-04-01T03:40:37.891Z,76.7983
2023-04-01T03:41:38.712Z,77.0907
2023-04-01T03:42:39.572Z,77.2183
2023-04-01T03:43:40.427Z,77.2650
2023-04-01T03:44:41.262Z,77.3901
2023-04-01T03:45:42.121Z,76.8576
2023-04-01T03:46:43.122Z,76.8440
2023-04-01T03:47:44.231Z,76.7534
2023-04-01T03:48:45.294Z,76.4456
2023-04-01T03:49:46.196Z,76.0124
2023-04-01T03:50:47.013Z,76.0258
2023-04-01T03:51:47.808Z,75.9994
2023-04-01T03:52:48.631Z,75.6492
2023-04-01T03:53:49.428Z,76.0273
2023-04-01T03:54:50.377Z,75.4800
2023-04-01T03:55:51.213Z,74.7563
2023-04-01T03:56:52.255Z,74.9583
2023-04-01T03:57:53.173Z,75.2962
2023-04-01T03:58:54.001Z,75.4043
2023-04-01T03:59:54.806Z,75.2044
2023-04-01T04:00:55.664Z,75.2870
2023-04-01T04:01:56.461Z,74.7879
2023-04-01T04:02:57.836Z,74.8776
2023-04-01T04:03:58.799Z,75.0621
2023-04-01T04:04:59.607Z,75.4358
2023-04-01T04:06:00.433Z,75.9115
2023-04-01T04:07:01.324Z,76.5780
2023-04-01T04:08:02.158Z,76.7267
2023-04-01T04:09:03.004Z,76.4158
2023-04-01T04:10:03.868Z,76.0072
2023-04-01T04:11:04.730Z,75.5446
2023-04-01T04:12:05.653Z,75.7503
2023-04-01T04:13:06.431Z,75.5499
2023-04-01T04:14:07.368Z,75.8498
2023-04-01T04:15:08.283Z,75.8293
2023-04-01T04:16:09.142Z,75.5080
2023-04-01T04:17:09.973Z,75.3861
2023-04-01T04:18:10.788Z,75.4899
2023-04-01T04:19:12.035Z,75.0789
2023-04-01T04:20:12.950Z,74.5620
2023-04-01T04:21:13.844Z,74.5459
2023-04-01T04:22:14.645Z,74.7190
2023-04-01T04:23:15.576Z,74.9748
2023-04-01T04:24:16.419Z,75.0646
2023-04-01T04:25:17.300Z,74.4117
2023-04-01T04:26:18.132Z,74.4667
2023-04-01T04:27:18.968Z,74.5296
2023-04-01T04:28:19.803Z,74.6250
2023-04-01T04:29:20.698Z,74.0977
2023-04-01T04:30:21.577Z,74.1199
2023-04-01T04:31:22.439Z,73.8534
2023-04-01T04:32:23.326Z,73.9898
2023-04-01T04:33:24.111Z,74.4379
2023-04-01T04:34:25.044Z,74.5891
2023-04-01T04:35:25.879Z,75.6145
2023-04-01T04:36:26.684Z,77.3675
2023-04-01T04:37:27.502Z,78.5714
2023-04-01T04:38:28.350Z,79.2185
2023-04-01T04:39:29.175Z,78.6769
2023-04-01T04:40:30.066Z,79.0563
2023-04-01T04:41:30.954Z,79.8977
2023-04-01T04:42:31.828Z,79.7294
2023-04-01T04:43:32.887Z,79.9314
2023-04-01T04:44:33.826Z,79.3016
2023-04-01T04:45:35.582Z,79.0233
2023-04-01T04:46:36.582Z,78.8081
2023-04-01T04:47:37.506Z,78.8117
2023-04-01T04:48:38.325Z,78.7180
2023-04-01T04:49:39.214Z,79.0767
2023-04-01T04:50:40.105Z,79.4114
2023-04-01T04:51:40.946Z,79.5748
2023-04-01T04:52:41.771Z,79.4471
2023-04-01T04:53:42.622Z,79.2876
2023-04-01T04:54:43.491Z,79.3612
2023-04-01T04:55:44.319Z,79.7867
2023-04-01T04:56:45.179Z,79.6666
2023-04-01T04:57:46.065Z,79.1352
2023-04-01T04:58:46.931Z,79.5102
2023-04-01T04:59:47.760Z,80.0826
2023-04-01T05:00:48.633Z,79.9469
2023-04-01T05:01:49.689Z,80.1341
2023-04-01T05:02:50.676Z,80.5349
2023-04-01T05:03:51.577Z,80.7889
2023-04-01T05:04:52.528Z,81.1848
2023-04-01T05:05:53.401Z,80.9483
2023-04-01T05:06:54.322Z,80.8417
2023-04-01T05:07:55.218Z,80.3785
2023-04-01T05:08:56.052Z,80.4071
2023-04-01T05:09:56.955Z,80.2323
2023-04-01T05:10:57.817Z,79.9549
2023-04-01T05:11:58.667Z,80.0736
2023-04-01T05:12:59.536Z,80.4507
2023-04-01T05:14:00.381Z,80.4458
2023-04-01T05:15:01.194Z,80.2791
2023-04-01T05:16:02.012Z,80.3862
2023-04-01T05:17:02.961Z,80.8169
2023-04-01T05:18:03.858Z,81.1773
2023-04-01T05:19:04.767Z,81.2114
2023-04-01T05:20:05.667Z,81.8185
2023-04-01T05:21:06.452Z,81.5456
2023-04-01T05:22:07.426Z,81.6257
2023-04-01T05:23:08.284Z,81.4829
2023-04-01T05:24:09.132Z,81.2232
2023-04-01T05:25:10.003Z,81.5093
2023-04-01T05:26:10.829Z,81.5039
2023-04-01T05:27:11.670Z,81.5130
2023-04-01T05:28:12.594Z,81.8656
2023-04-01T05:29:13.423Z,81.6528
2023-04-01T05:30:14.314Z,81.6210
2023-04-01T05:31:15.231Z,81.4076
2023-04-01T05:32:16.128Z,81.6660
2023-04-01T05:33:16.984Z,81.9101
2023-04-01T05:34:17.799Z,81.6828
2023-04-01T05:35:18.681Z,81.7440
2023-04-01T05:36:19.650Z,81.8671
2023-04-01T05:37:20.452Z,82.8259
2023-04-01T05:38:21.330Z,83.4576
2023-04-01T05:39:22.212Z,83.7286
2023-04-01T05:40:23.136Z,83.4704
2023-04-01T05:41:24.046Z,83.3631
2023-04-01T05:42:24.905Z,83.3365
2023-04-01T05:43:25.826Z,83.2781
2023-04-01T05:44:26.665Z,83.3065
2023-04-01T05:45:27.489Z,83.5619
2023-04-01T05:46:28.448Z,83.7508
2023-04-01T05:47:29.461Z,83.6617
2023-04-01T05:48:30.347Z,83.2203
2023-04-01T05:49:31.180Z,83.2653
2023-04-01T05:50:32.054Z,83.4947
2023-04-01T05:51:32.908Z,83.0376
2023-04-01T05:52:33.768Z,82.8385
2023-04-01T05:53:34.599Z,82.5838
2023-04-01T05:54:35.495Z,82.7506
2023-04-01T05:55:36.392Z,82.4748
2023-04-01T05:56:37.433Z,82.5991
2023-04-01T05:57:38.498Z,82.6784
2023-04-01T05:58:39.328Z,82.7930
2023-04-01T05:59:40.212Z,82.7415
2023-04-01T06:00:41.060Z,83.0537
2023-04-01T06:01:41.924Z,82.8603
2023-04-01T06:02:42.913Z,82.7195
2023-04-01T06:03:44.669Z,82.6989
2023-04-01T06:04:46.054Z,82.8160
2023-04-01T06:05:47.091Z,83.0212
2023-04-01T06:06:48.006Z,82.5591
2023-04-01T06:07:48.800Z,82.8424
2023-04-01T06:08:49.612Z,83.2412
2023-04-01T06:09:50.502Z,83.0821
2023-04-01T06:10:51.358Z,82.9136
2023-04-01T06:11:52.227Z,82.7302
2023-04-01T06:12:53.081Z,82.7430
2023-04-01T06:13:53.944Z,82.4764
2023-04-01T06:14:54.817Z,82.2562
2023-04-01T06:15:55.653Z,81.7836
2023-04-01T06:16:56.443Z,81.9507
2023-04-01T06:17:57.281Z,81.7630
2023-04-01T06:18:58.100Z,81.0352
2023-04-01T06:19:58.963Z,80.8561
2023-04-01T06:20:59.824Z,81.1319
2023-04-01T06:22:00.965Z,80.7584
2023-04-01T06:23:01.827Z,80.9841
2023-04-01T06:24:02.707Z,80.9294
2023-04-01T06:25:03.666Z,81.1323
2023-04-01T06:26:04.497Z,81.2334
2023-04-01T06:27:05.350Z,81.1469
2023-04-01T06:28:09.381Z,81.1216
2023-04-01T06:29:08.061Z,81.1962
2023-04-01T06:30:09.026Z,80.9673
2023-04-01T06:31:10.252Z,81.4382
2023-04-01T06:32:11.442Z,81.3074
2023-04-01T06:33:12.642Z,81.0882
2023-04-01T06:34:13.536Z,81.2748
2023-04-01T06:35:14.411Z,81.0605
2023-04-01T06:36:15.293Z,80.6443
2023-04-01T06:37:16.080Z,80.5887
2023-04-01T06:38:16.918Z,80.1150
2023-04-01T06:39:17.785Z,79.3944
2023-04-01T06:40:18.669Z,79.1708
2023-04-01T06:41:19.584Z,79.1840
2023-04-01T06:42:20.424Z,78.8251
2023-04-01T06:43:21.292Z,79.0131
2023-04-01T06:44:22.146Z,78.9338
2023-04-01T06:45:23.072Z,79.1409
2023-04-01T06:46:24.102Z,78.8829
2023-04-01T06:47:25.280Z,78.3317
2023-04-01T06:48:26.082Z,78.4684
2023-04-01T06:49:27.050Z,78.2524
2023-04-01T06:50:28.008Z,78.3498
2023-04-01T06:51:28.888Z,78.6530
2023-04-01T06:52:29.682Z,78.3629
2023-04-01T06:53:30.532Z,77.3983
2023-04-01T06:54:31.366Z,76.8878
2023-04-01T06:55:32.593Z,76.8928
2023-04-01T06:56:33.630Z,76.8060
2023-04-01T06:57:34.460Z,76.6361
2023-04-01T06:58:35.293Z,76.5109
2023-04-01T06:59:36.102Z,76.3708
2023-04-01T07:00:36.164Z,76.2679
2023-04-01T07:01:37.925Z,76.0534
2023-04-01T07:02:38.974Z,75.6148
2023-04-01T07:03:40.050Z,76.2024
2023-04-01T07:04:41.131Z,75.8909
2023-04-01T07:05:41.989Z,76.0536
2023-04-01T07:06:42.913Z,76.7360
2023-04-01T07:07:43.769Z,76.8299
2023-04-01T07:08:44.694Z,76.2985
2023-04-01T07:09:45.602Z,76.6497
2023-04-01T07:10:46.448Z,76.9999
2023-04-01T07:11:47.299Z,76.7549
2023-04-01T07:12:48.064Z,76.8062
2023-04-01T07:13:48.885Z,76.3477
2023-04-01T07:14:49.739Z,76.2803
2023-04-01T07:15:50.599Z,76.4535
2023-04-01T07:16:51.577Z,76.8941
2023-04-01T07:17:52.385Z,76.6910
2023-04-01T07:18:53.261Z,77.0930
2023-04-01T07:19:54.090Z,77.8051
2023-04-01T07:20:54.941Z,78.2729
2023-04-01T07:21:55.903Z,78.1613
2023-04-01T07:22:56.702Z,78.6130
2023-04-01T07:23:57.511Z,79.2641
2023-04-01T07:24:58.394Z,79.6176
2023-04-01T07:25:59.235Z,80.8507
2023-04-01T07:27:00.158Z,81.2753
2023-04-01T07:28:00.970Z,81.6225
2023-04-01T07:29:01.782Z,81.8637
2023-04-01T07:30:02.608Z,82.4132
2023-04-01T07:31:03.488Z,83.1794
2023-04-01T07:32:04.349Z,83.3292
2023-04-01T07:33:05.270Z,83.7433
2023-04-01T07:34:06.102Z,82.7532
2023-04-01T07:35:06.934Z,83.0887
2023-04-01T07:36:07.794Z,83.0094
2023-04-01T07:37:08.635Z,84.0344
2023-04-01T07:38:09.445Z,83.7416
2023-04-01T07:39:10.303Z,83.0964
2023-04-01T07:40:11.204Z,83.6563
2023-04-01T07:41:12.100Z,83.7648
2023-04-01T07:42:12.873Z,84.0797
2023-04-01T07:43:13.740Z,84.6296
2023-04-01T07:44:14.684Z,83.9148
2023-04-01T07:45:15.496Z,83.9147
2023-04-01T07:46:16.626Z,84.6766
2023-04-01T07:47:17.571Z,84.9305
2023-04-01T07:48:18.393Z,84.8117
2023-04-01T07:49:19.255Z,85.2138
2023-04-01T07:50:20.094Z,85.3038
2023-04-01T07:51:20.920Z,85.1577
2023-04-01T07:52:21.706Z,84.9588
2023-04-01T07:53:22.528Z,85.5118
2023-04-01T07:54:23.355Z,85.8833
2023-04-01T07:55:24.200Z,85.6259
2023-04-01T07:56:25.021Z,85.0850
2023-04-01T07:57:26.045Z,85.2584
2023-04-01T07:58:26.936Z,85.0511
2023-04-01T07:59:27.732Z,85.5456
2023-04-01T08:00:29.606Z,85.2056
2023-04-01T08:01:30.462Z,85.5498
2023-04-01T08:02:31.552Z,85.6876
2023-04-01T08:03:32.771Z,85.6528
2023-04-01T08:04:33.881Z,85.9428
2023-04-01T08:05:35.822Z,85.5603
2023-04-01T08:06:36.876Z,85.8981
2023-04-01T08:07:37.718Z,86.3256
2023-04-01T08:08:38.537Z,86.8418
2023-04-01T08:09:39.399Z,87.2378
2023-04-01T08:10:40.196Z,87.3084
2023-04-01T08:11:44.225Z,87.2275
2023-04-01T08:12:42.784Z,86.5113
2023-04-01T08:13:43.576Z,87.2967
2023-04-01T08:14:44.435Z,87.7169
2023-04-01T08:15:45.282Z,87.4650
2023-04-01T08:16:46.182Z,87.2975
2023-04-01T08:17:47.077Z,87.1891
2023-04-01T08:18:47.892Z,86.7049
2023-04-01T08:19:48.759Z,86.6300
2023-04-01T08:20:49.601Z,86.9124
2023-04-01T08:21:50.438Z,87.4214
2023-04-01T08:22:51.299Z,87.6808
2023-04-01T08:23:52.124Z,86.9464
2023-04-01T08:24:52.989Z,86.7367
2023-04-01T08:25:53.838Z,86.8922
2023-04-01T08:26:54.749Z,86.9147
2023-04-01T08:27:55.568Z,87.2245
2023-04-01T08:28:56.460Z,87.2731
2023-04-01T08:29:57.295Z,87.0324
2023-04-01T08:30:58.227Z,87.3840
2023-04-01T08:31:59.213Z,87.3588
2023-04-01T08:33:00.216Z,85.5091
2023-04-01T08:34:01.140Z,85.2026
2023-04-01T08:35:02.071Z,86.0366
2023-04-01T08:36:03.063Z,86.6389
2023-04-01T08:37:03.957Z,86.8552
2023-04-01T08:38:04.774Z,87.6450
2023-04-01T08:39:05.608Z,87.4146
2023-04-01T08:40:06.538Z,87.8225
2023-04-01T08:41:07.486Z,87.7836
2023-04-01T08:42:08.389Z,87.7768
2023-04-01T08:43:09.349Z,88.1815
2023-04-01T08:44:10.254Z,88.2074
2023-04-01T08:45:14.736Z,87.8021
2023-04-01T08:46:11.266Z,87.6153
2023-04-01T08:47:12.186Z,87.9548
2023-04-01T08:48:13.245Z,88.0125
2023-04-01T08:49:14.122Z,87.9002
2023-04-01T08:50:14.976Z,87.6179
2023-04-01T08:51:15.862Z,87.4703
2023-04-01T08:52:16.699Z,87.1769
2023-04-01T08:53:17.535Z,86.5758
2023-04-01T08:54:18.439Z,86.4030
2023-04-01T08:55:19.294Z,86.9045
2023-04-01T08:56:20.184Z,87.3433
2023-04-01T08:57:21.191Z,86.9867
2023-04-01T08:58:22.007Z,86.6714
2023-04-01T08:59:22.835Z,87.3301
2023-04-01T09:00:23.703Z,87.2931
2023-04-01T09:01:24.569Z,87.3847
2023-04-01T09:02:25.663Z,87.7895
2023-04-01T09:03:26.850Z,87.9322
2023-04-01T09:04:27.980Z,87.4854
2023-04-01T09:05:28.796Z,87.3510
2023-04-01T09:06:29.703Z,87.3907
2023-04-01T09:07:30.566Z,86.9929
2023-04-01T09:08:31.428Z,87.2537
2023-04-01T09:09:32.270Z,87.4205
2023-04-01T09:10:33.151Z,87.7972
2023-04-01T09:11:34.061Z,88.1183
2023-04-01T09:12:34.966Z,88.1440
2023-04-01T09:13:35.781Z,88.6200
2023-04-01T09:14:36.630Z,88.1928
2023-04-01T09:15:37.917Z,88.6709
2023-04-01T09:16:38.853Z,87.7503
2023-04-01T09:17:39.872Z,86.9020
2023-04-01T09:18:40.799Z,85.9312
2023-04-01T09:19:41.638Z,86.5160
2023-04-01T09:20:42.456Z,86.5947
2023-04-01T09:21:43.275Z,86.6344
2023-04-01T09:22:44.159Z,86.4529
2023-04-01T09:23:44.989Z,86.3764
2023-04-01T09:24:45.925Z,86.9067
2023-04-01T09:25:46.741Z,86.9891
2023-04-01T09:26:47.648Z,86.9093
2023-04-01T09:27:49.660Z,86.3673
2023-04-01T09:28:50.526Z,86.4676
2023-04-01T09:29:51.420Z,86.4966
2023-04-01T09:30:52.260Z,86.1925
2023-04-01T09:31:53.373Z,86.3548
2023-04-01T09:32:54.498Z,87.0263
2023-04-01T09:33:55.456Z,86.7471
2023-04-01T09:34:56.306Z,87.0242
2023-04-01T09:35:57.222Z,87.5003
2023-04-01T09:36:58.099Z,87.4744
2023-04-01T09:37:58.913Z,87.9106
2023-04-01T09:38:59.741Z,87.3064
2023-04-01T09:40:00.686Z,86.5461
2023-04-01T09:41:01.538Z,86.1193
2023-04-01T09:42:02.428Z,86.4834
2023-04-01T09:43:03.328Z,86.3136
2023-04-01T09:44:04.125Z,85.7174
2023-04-01T09:45:05.044Z,85.6895
2023-04-01T09:46:05.924Z,86.1870
2023-04-01T09:47:06.827Z,86.1442
2023-04-01T09:48:07.935Z,85.3551
2023-04-01T09:49:08.752Z,85.6984
2023-04-01T09:50:09.615Z,85.3008
2023-04-01T09:51:10.419Z,84.3863
2023-04-01T09:52:11.274Z,83.8519
2023-04-01T09:53:12.101Z,83.8155
2023-04-01T09:54:13.054Z,83.3803
2023-04-01T09:55:14.018Z,83.1965
2023-04-01T09:56:14.863Z,83.7457
2023-04-01T09:57:15.761Z,84.0847
2023-04-01T09:58:16.581Z,83.6048
2023-04-01T09:59:17.407Z,84.0239
2023-04-01T10:00:19.299Z,83.0833
2023-04-01T10:01:20.224Z,82.8760
2023-04-01T10:02:21.096Z,82.3928
2023-04-01T10:03:21.871Z,82.6942
2023-04-01T10:04:22.717Z,82.6685
2023-04-01T10:05:23.614Z,81.3292
2023-04-01T10:06:24.385Z,80.5828
2023-04-01T10:07:25.184Z,80.3276
2023-04-01T10:08:26.003Z,80.9042
2023-04-01T10:09:26.824Z,81.0383
2023-04-01T10:10:27.753Z,81.0056
2023-04-01T10:11:28.619Z,81.1739
2023-04-01T10:12:29.530Z,81.3716
2023-04-01T10:13:30.364Z,80.8169
2023-04-01T10:14:31.187Z,81.0126
2023-04-01T10:15:32.714Z,81.6406
2023-04-01T10:16:33.875Z,81.3208
2023-04-01T10:17:34.655Z,81.5931
2023-04-01T10:18:35.526Z,82.0162
2023-04-01T10:19:36.463Z,82.1803
2023-04-01T10:20:37.293Z,82.5357
2023-04-01T10:21:38.095Z,82.9708
2023-04-01T10:22:38.889Z,82.5474
2023-04-01T10:23:39.775Z,82.0809
2023-04-01T10:24:40.587Z,82.4646
2023-04-01T10:25:41.476Z,82.3344
2023-04-01T10:26:42.672Z,82.4562
2023-04-01T10:27:43.539Z,82.3458
2023-04-01T10:28:44.330Z,81.4896
2023-04-01T10:29:45.114Z,79.7245
2023-04-01T10:30:45.979Z,80.1341
2023-04-01T10:31:46.994Z,81.0193
2023-04-01T10:32:47.871Z,81.6600
2023-04-01T10:33:48.663Z,81.7615
2023-04-01T10:34:49.469Z,80.6598
2023-04-01T10:35:50.344Z,79.9757
2023-04-01T10:36:51.227Z,80.3523
2023-04-01T10:37:52.060Z,80.7823
2023-04-01T10:38:52.863Z,80.9457
2023-04-01T10:39:53.664Z,81.2997
2023-04-01T10:40:54.473Z,81.0607
2023-04-01T10:41:55.272Z,81.1769
2023-04-01T10:42:56.100Z,81.4006
2023-04-01T10:43:56.956Z,80.5241
2023-04-01T10:44:58.775Z,81.1996
2023-04-01T10:45:59.689Z,81.1969
2023-04-01T10:47:00.461Z,81.0538
2023-04-01T10:48:01.272Z,80.9558
2023-04-01T10:49:02.067Z,81.1994
2023-04-01T10:50:02.853Z,81.3525
2023-04-01T10:51:03.752Z,80.5343
2023-04-01T10:52:04.487Z,80.1680
2023-04-01T10:53:07.850Z,80.4800
2023-04-01T10:54:06.425Z,80.3518
2023-04-01T10:55:07.226Z,80.3452
2023-04-01T10:56:08.031Z,80.1461
2023-04-01T10:57:08.856Z,79.4411
2023-04-01T10:58:09.738Z,79.9127
2023-04-01T10:59:10.530Z,80.5375
2023-04-01T11:00:11.303Z,80.1808
2023-04-01T11:01:12.103Z,79.8724
2023-04-01T11:02:13.182Z,79.7723
2023-04-01T11:03:14.609Z,79.5000
2023-04-01T11:04:15.524Z,79.3582
2023-04-01T11:05:20.743Z,79.7408
2023-04-01T11:06:17.527Z,79.6466
2023-04-01T11:07:18.396Z,79.6735
2023-04-01T11:08:19.232Z,79.4196
2023-04-01T11:09:20.108Z,78.9921
2023-04-01T11:10:20.957Z,78.8410
2023-04-01T11:11:21.764Z,78.4057
2023-04-01T11:12:22.556Z,78.3196
2023-04-01T11:13:23.421Z,78.6795
2023-04-01T11:14:24.372Z,78.7786
2023-04-01T11:15:25.184Z,78.1810
2023-04-01T11:16:26.032Z,77.6382
2023-04-01T11:17:26.950Z,77.9079
2023-04-01T11:18:27.816Z,78.4785
2023-04-01T11:19:28.736Z,77.4663
2023-04-01T11:20:29.540Z,77.5367
2023-04-01T11:21:30.418Z,77.0417
2023-04-01T11:22:31.239Z,77.2812
2023-04-01T11:23:32.084Z,77.3865
2023-04-01T11:24:32.883Z,77.5002
2023-04-01T11:25:34.616Z,77.7024
2023-04-01T11:26:35.547Z,78.3772
2023-04-01T11:27:39.791Z,78.2501
2023-04-01T11:28:38.559Z,78.2917
2023-04-01T11:29:58.765Z,78.7466
2023-04-01T11:30:40.895Z,79.6654
2023-04-01T11:31:41.914Z,79.3541
2023-04-01T11:32:42.912Z,79.6781
2023-04-01T11:33:43.803Z,80.1255
2023-04-01T11:34:44.569Z,81.1408
2023-04-01T11:35:45.423Z,81.7786
2023-04-01T11:36:46.317Z,80.7645
2023-04-01T11:37:47.093Z,80.6882
2023-04-01T11:38:47.876Z,81.0249
2023-04-01T11:39:48.734Z,80.7642
2023-04-01T11:40:49.652Z,80.1246
2023-04-01T11:41:50.533Z,80.4578
2023-04-01T11:42:51.384Z,80.6268
2023-04-01T11:43:52.232Z,81.2220
2023-04-01T11:44:53.115Z,80.8112
2023-04-01T11:45:53.995Z,80.6173
2023-04-01T11:46:55.099Z,80.7400
2023-04-01T11:47:56.005Z,80.5784
2023-04-01T11:48:56.821Z,80.8139
2023-04-01T11:49:57.607Z,80.7797
2023-04-01T11:50:58.506Z,80.2573
2023-04-01T11:51:59.396Z,80.2421
2023-04-01T11:53:00.267Z,79.5067
2023-04-01T11:54:01.179Z,80.0946
2023-04-01T11:55:01.992Z,79.8582
2023-04-01T11:56:02.963Z,79.6417
2023-04-01T11:57:03.852Z,80.1316
2023-04-01T11:58:04.668Z,79.5314
2023-04-01T11:59:05.471Z,79.0021
2023-04-01T12:00:06.247Z,78.3081
2023-04-01T12:01:07.086Z,78.2412
2023-04-01T12:02:07.985Z,77.5259
2023-04-01T12:03:09.010Z,76.7531
2023-04-01T12:04:10.506Z,77.1661
2023-04-01T12:05:11.709Z,77.5124
2023-04-01T12:06:12.482Z,77.2558
2023-04-01T12:07:13.290Z,76.4484
2023-04-01T12:08:14.106Z,76.0333
2023-04-01T12:09:14.912Z,76.5835
2023-04-01T12:10:15.702Z,76.5385
2023-04-01T12:11:16.720Z,76.0019
2023-04-01T12:12:17.546Z,74.9416
2023-04-01T12:13:18.356Z,74.4121
2023-04-01T12:14:19.145Z,74.1228
2023-04-01T12:15:19.921Z,73.8439
2023-04-01T12:16:20.833Z,74.1906